sensor_id;sensor_type;location;lat;lon;timestamp;P1;durP1;ratioP1;P2;durP2;ratioP2
31368;SDS011;18004;48.416;10.066;2024-02-28T00:01:59;17.52;;;10.35;;
31368;SDS011;18004;48.416;10.066;2024-02-28T00:04:25;20.75;;;9.95;;
31368;SDS011;18004;48.416;10.066;2024-02-28T00:06:51;21.33;;;10.82;;
31368;SDS011;18004;48.416;10.066;2024-02-28T00:09:17;21.88;;;10.80;;
31368;SDS011;18004;48.416;10.066;2024-02-28T00:11:43;24.17;;;11.55;;
31368;SDS011;18004;48.416;10.066;2024-02-28T00:14:10;24.77;;;11.18;;
31368;SDS011;18004;48.416;10.066;2024-02-28T00:16:36;19.17;;;10.27;;
31368;SDS011;18004;48.416;10.066;2024-02-28T00:19:05;19.95;;;10.77;;
31368;SDS011;18004;48.416;10.066;2024-02-28T00:21:31;23.35;;;11.00;;
31368;SDS011;18004;48.416;10.066;2024-02-28T00:23:57;21.85;;;11.25;;
31368;SDS011;18004;48.416;10.066;2024-02-28T00:26:23;22.95;;;10.65;;
31368;SDS011;18004;48.416;10.066;2024-02-28T00:28:48;23.70;;;11.07;;
31368;SDS011;18004;48.416;10.066;2024-02-28T00:31:14;24.38;;;11.70;;
31368;SDS011;18004;48.416;10.066;2024-02-28T00:33:40;22.42;;;11.65;;
31368;SDS011;18004;48.416;10.066;2024-02-28T00:36:06;18.95;;;10.77;;
31368;SDS011;18004;48.416;10.066;2024-02-28T00:38:31;18.10;;;10.60;;
31368;SDS011;18004;48.416;10.066;2024-02-28T00:40:57;19.00;;;10.90;;
31368;SDS011;18004;48.416;10.066;2024-02-28T00:43:23;18.70;;;11.50;;
31368;SDS011;18004;48.416;10.066;2024-02-28T00:45:48;20.85;;;11.40;;
31368;SDS011;18004;48.416;10.066;2024-02-28T00:48:14;21.42;;;10.80;;
31368;SDS011;18004;48.416;10.066;2024-02-28T00:50:40;18.48;;;11.43;;
31368;SDS011;18004;48.416;10.066;2024-02-28T00:53:06;25.15;;;12.32;;
31368;SDS011;18004;48.416;10.066;2024-02-28T00:55:31;24.45;;;12.30;;
31368;SDS011;18004;48.416;10.066;2024-02-28T00:57:57;24.33;;;11.77;;
31368;SDS011;18004;48.416;10.066;2024-02-28T01:00:23;24.63;;;11.27;;
31368;SDS011;18004;48.416;10.066;2024-02-28T01:02:49;26.98;;;12.60;;
31368;SDS011;18004;48.416;10.066;2024-02-28T01:05:14;18.83;;;10.40;;
31368;SDS011;18004;48.416;10.066;2024-02-28T01:07:40;27.27;;;11.75;;
31368;SDS011;18004;48.416;10.066;2024-02-28T01:10:06;30.35;;;11.88;;
31368;SDS011;18004;48.416;10.066;2024-02-28T01:12:32;23.92;;;11.90;;
31368;SDS011;18004;48.416;10.066;2024-02-28T01:14:58;30.13;;;12.18;;
31368;SDS011;18004;48.416;10.066;2024-02-28T01:17:24;22.05;;;12.38;;
31368;SDS011;18004;48.416;10.066;2024-02-28T01:19:49;24.52;;;12.43;;
31368;SDS011;18004;48.416;10.066;2024-02-28T01:22:15;25.80;;;12.75;;
31368;SDS011;18004;48.416;10.066;2024-02-28T01:24:41;24.42;;;11.70;;
31368;SDS011;18004;48.416;10.066;2024-02-28T01:27:07;25.98;;;13.45;;
31368;SDS011;18004;48.416;10.066;2024-02-28T01:29:33;25.17;;;12.95;;
31368;SDS011;18004;48.416;10.066;2024-02-28T01:31:59;19.85;;;11.25;;
31368;SDS011;18004;48.416;10.066;2024-02-28T01:34:24;26.40;;;12.43;;
31368;SDS011;18004;48.416;10.066;2024-02-28T01:36:50;33.17;;;13.38;;
31368;SDS011;18004;48.416;10.066;2024-02-28T01:39:16;24.83;;;12.30;;
31368;SDS011;18004;48.416;10.066;2024-02-28T01:41:50;30.83;;;12.98;;
31368;SDS011;18004;48.416;10.066;2024-02-28T01:44:19;34.22;;;13.18;;
31368;SDS011;18004;48.416;10.066;2024-02-28T01:46:45;28.60;;;12.70;;
31368;SDS011;18004;48.416;10.066;2024-02-28T01:49:12;23.35;;;12.38;;
31368;SDS011;18004;48.416;10.066;2024-02-28T01:51:39;23.58;;;12.48;;
31368;SDS011;18004;48.416;10.066;2024-02-28T01:54:05;22.95;;;12.57;;
31368;SDS011;18004;48.416;10.066;2024-02-28T01:56:31;29.55;;;13.73;;
31368;SDS011;18004;48.416;10.066;2024-02-28T01:58:57;28.58;;;13.63;;
31368;SDS011;18004;48.416;10.066;2024-02-28T02:01:24;29.08;;;14.27;;
31368;SDS011;18004;48.416;10.066;2024-02-28T02:03:51;26.25;;;13.07;;
31368;SDS011;18004;48.416;10.066;2024-02-28T02:06:17;27.35;;;13.68;;
31368;SDS011;18004;48.416;10.066;2024-02-28T02:08:43;27.17;;;13.98;;
31368;SDS011;18004;48.416;10.066;2024-02-28T02:11:09;26.65;;;12.95;;
31368;SDS011;18004;48.416;10.066;2024-02-28T02:13:35;31.15;;;13.82;;
31368;SDS011;18004;48.416;10.066;2024-02-28T02:16:01;29.33;;;13.27;;
31368;SDS011;18004;48.416;10.066;2024-02-28T02:18:27;27.33;;;13.13;;
31368;SDS011;18004;48.416;10.066;2024-02-28T02:20:54;28.70;;;13.27;;
31368;SDS011;18004;48.416;10.066;2024-02-28T02:23:25;31.60;;;12.60;;
31368;SDS011;18004;48.416;10.066;2024-02-28T02:25:50;27.27;;;14.32;;
31368;SDS011;18004;48.416;10.066;2024-02-28T02:28:16;34.47;;;13.77;;
31368;SDS011;18004;48.416;10.066;2024-02-28T02:30:42;31.33;;;14.40;;
31368;SDS011;18004;48.416;10.066;2024-02-28T02:33:08;30.77;;;13.65;;
31368;SDS011;18004;48.416;10.066;2024-02-28T02:35:35;36.40;;;13.60;;
31368;SDS011;18004;48.416;10.066;2024-02-28T02:38:01;30.63;;;13.52;;
31368;SDS011;18004;48.416;10.066;2024-02-28T02:40:27;35.10;;;14.02;;
31368;SDS011;18004;48.416;10.066;2024-02-28T02:42:52;28.42;;;13.70;;
31368;SDS011;18004;48.416;10.066;2024-02-28T02:45:18;25.83;;;12.75;;
31368;SDS011;18004;48.416;10.066;2024-02-28T02:47:44;29.60;;;14.95;;
31368;SDS011;18004;48.416;10.066;2024-02-28T02:50:10;28.40;;;13.98;;
31368;SDS011;18004;48.416;10.066;2024-02-28T02:52:36;37.80;;;14.00;;
31368;SDS011;18004;48.416;10.066;2024-02-28T02:55:02;32.38;;;13.98;;
31368;SDS011;18004;48.416;10.066;2024-02-28T02:57:28;28.48;;;13.77;;
31368;SDS011;18004;48.416;10.066;2024-02-28T02:59:56;29.02;;;13.32;;
31368;SDS011;18004;48.416;10.066;2024-02-28T03:02:22;30.75;;;15.18;;
31368;SDS011;18004;48.416;10.066;2024-02-28T03:04:47;34.03;;;13.85;;
31368;SDS011;18004;48.416;10.066;2024-02-28T03:07:13;32.25;;;14.73;;
31368;SDS011;18004;48.416;10.066;2024-02-28T03:09:39;35.55;;;13.48;;
31368;SDS011;18004;48.416;10.066;2024-02-28T03:12:06;27.92;;;13.40;;
31368;SDS011;18004;48.416;10.066;2024-02-28T03:14:32;31.08;;;15.10;;
31368;SDS011;18004;48.416;10.066;2024-02-28T03:17:00;38.08;;;14.82;;
31368;SDS011;18004;48.416;10.066;2024-02-28T03:19:25;31.17;;;14.13;;
31368;SDS011;18004;48.416;10.066;2024-02-28T03:21:52;30.15;;;14.25;;
31368;SDS011;18004;48.416;10.066;2024-02-28T03:24:18;32.72;;;14.85;;
31368;SDS011;18004;48.416;10.066;2024-02-28T03:26:43;33.78;;;14.73;;
31368;SDS011;18004;48.416;10.066;2024-02-28T03:29:09;37.65;;;15.90;;
31368;SDS011;18004;48.416;10.066;2024-02-28T03:31:35;31.17;;;15.23;;
31368;SDS011;18004;48.416;10.066;2024-02-28T03:34:01;29.38;;;13.43;;
31368;SDS011;18004;48.416;10.066;2024-02-28T03:36:28;28.15;;;13.63;;
31368;SDS011;18004;48.416;10.066;2024-02-28T03:38:54;37.45;;;14.15;;
31368;SDS011;18004;48.416;10.066;2024-02-28T03:41:19;32.38;;;15.38;;
31368;SDS011;18004;48.416;10.066;2024-02-28T03:43:45;24.92;;;13.45;;
31368;SDS011;18004;48.416;10.066;2024-02-28T03:46:11;32.67;;;14.73;;
31368;SDS011;18004;48.416;10.066;2024-02-28T03:48:37;35.13;;;14.60;;
31368;SDS011;18004;48.416;10.066;2024-02-28T03:51:03;31.10;;;14.15;;
31368;SDS011;18004;48.416;10.066;2024-02-28T03:53:29;26.00;;;13.80;;
31368;SDS011;18004;48.416;10.066;2024-02-28T03:55:55;32.63;;;14.98;;
31368;SDS011;18004;48.416;10.066;2024-02-28T03:58:21;29.63;;;13.90;;
31368;SDS011;18004;48.416;10.066;2024-02-28T04:00:47;33.05;;;15.18;;
31368;SDS011;18004;48.416;10.066;2024-02-28T04:03:13;25.10;;;12.25;;
31368;SDS011;18004;48.416;10.066;2024-02-28T04:05:39;36.10;;;16.15;;
31368;SDS011;18004;48.416;10.066;2024-02-28T04:08:06;40.38;;;16.23;;
31368;SDS011;18004;48.416;10.066;2024-02-28T04:10:31;33.33;;;14.55;;
31368;SDS011;18004;48.416;10.066;2024-02-28T04:12:57;36.70;;;14.77;;
31368;SDS011;18004;48.416;10.066;2024-02-28T04:15:23;34.70;;;15.40;;
31368;SDS011;18004;48.416;10.066;2024-02-28T04:17:51;30.63;;;14.93;;
31368;SDS011;18004;48.416;10.066;2024-02-28T04:20:17;30.73;;;14.90;;
31368;SDS011;18004;48.416;10.066;2024-02-28T04:22:43;36.25;;;15.63;;
31368;SDS011;18004;48.416;10.066;2024-02-28T04:25:09;29.60;;;14.52;;
31368;SDS011;18004;48.416;10.066;2024-02-28T04:27:35;29.40;;;15.02;;
31368;SDS011;18004;48.416;10.066;2024-02-28T04:30:01;36.40;;;15.65;;
31368;SDS011;18004;48.416;10.066;2024-02-28T04:32:28;38.10;;;16.38;;
31368;SDS011;18004;48.416;10.066;2024-02-28T04:34:54;39.58;;;16.02;;
31368;SDS011;18004;48.416;10.066;2024-02-28T04:37:20;31.55;;;16.17;;
31368;SDS011;18004;48.416;10.066;2024-02-28T04:39:46;32.17;;;14.90;;
31368;SDS011;18004;48.416;10.066;2024-02-28T04:42:12;34.47;;;15.70;;
31368;SDS011;18004;48.416;10.066;2024-02-28T04:44:38;37.17;;;14.23;;
31368;SDS011;18004;48.416;10.066;2024-02-28T04:47:04;35.38;;;14.98;;
31368;SDS011;18004;48.416;10.066;2024-02-28T04:49:30;36.75;;;14.75;;
31368;SDS011;18004;48.416;10.066;2024-02-28T04:51:56;34.72;;;15.48;;
31368;SDS011;18004;48.416;10.066;2024-02-28T04:54:21;35.10;;;15.05;;
31368;SDS011;18004;48.416;10.066;2024-02-28T04:56:47;29.70;;;14.23;;
31368;SDS011;18004;48.416;10.066;2024-02-28T04:59:13;34.13;;;15.25;;
31368;SDS011;18004;48.416;10.066;2024-02-28T05:01:39;37.13;;;17.02;;
31368;SDS011;18004;48.416;10.066;2024-02-28T05:04:07;32.90;;;13.45;;
31368;SDS011;18004;48.416;10.066;2024-02-28T05:06:33;30.02;;;14.75;;
31368;SDS011;18004;48.416;10.066;2024-02-28T05:08:59;35.30;;;15.70;;
31368;SDS011;18004;48.416;10.066;2024-02-28T05:11:25;36.45;;;15.27;;
31368;SDS011;18004;48.416;10.066;2024-02-28T05:13:51;29.58;;;13.82;;
31368;SDS011;18004;48.416;10.066;2024-02-28T05:16:16;34.45;;;15.52;;
31368;SDS011;18004;48.416;10.066;2024-02-28T05:18:44;32.95;;;14.13;;
31368;SDS011;18004;48.416;10.066;2024-02-28T05:21:11;35.20;;;15.30;;
31368;SDS011;18004;48.416;10.066;2024-02-28T05:23:37;33.38;;;15.05;;
31368;SDS011;18004;48.416;10.066;2024-02-28T05:26:02;37.15;;;16.23;;
31368;SDS011;18004;48.416;10.066;2024-02-28T05:28:29;38.38;;;15.70;;
31368;SDS011;18004;48.416;10.066;2024-02-28T05:30:56;28.85;;;13.50;;
31368;SDS011;18004;48.416;10.066;2024-02-28T05:33:22;30.05;;;14.60;;
31368;SDS011;18004;48.416;10.066;2024-02-28T05:35:48;39.30;;;16.02;;
31368;SDS011;18004;48.416;10.066;2024-02-28T05:38:14;30.33;;;14.95;;
31368;SDS011;18004;48.416;10.066;2024-02-28T05:40:42;33.28;;;14.52;;
31368;SDS011;18004;48.416;10.066;2024-02-28T05:43:08;27.38;;;12.70;;
31368;SDS011;18004;48.416;10.066;2024-02-28T05:45:34;28.42;;;14.43;;
31368;SDS011;18004;48.416;10.066;2024-02-28T05:48:00;24.92;;;12.25;;
31368;SDS011;18004;48.416;10.066;2024-02-28T05:50:25;33.47;;;14.13;;
31368;SDS011;18004;48.416;10.066;2024-02-28T05:52:51;28.70;;;13.32;;
31368;SDS011;18004;48.416;10.066;2024-02-28T05:55:17;31.30;;;14.73;;
31368;SDS011;18004;48.416;10.066;2024-02-28T05:57:43;25.40;;;12.52;;
31368;SDS011;18004;48.416;10.066;2024-02-28T06:00:09;29.92;;;13.73;;
31368;SDS011;18004;48.416;10.066;2024-02-28T06:02:36;27.63;;;12.00;;
31368;SDS011;18004;48.416;10.066;2024-02-28T06:05:03;33.63;;;13.68;;
31368;SDS011;18004;48.416;10.066;2024-02-28T06:07:29;30.20;;;13.82;;
31368;SDS011;18004;48.416;10.066;2024-02-28T06:09:55;30.30;;;13.07;;
31368;SDS011;18004;48.416;10.066;2024-02-28T06:12:21;24.95;;;13.00;;
31368;SDS011;18004;48.416;10.066;2024-02-28T06:14:46;27.73;;;12.23;;
31368;SDS011;18004;48.416;10.066;2024-02-28T06:17:12;29.85;;;13.98;;
31368;SDS011;18004;48.416;10.066;2024-02-28T06:19:38;24.88;;;12.02;;
31368;SDS011;18004;48.416;10.066;2024-02-28T06:22:04;27.45;;;12.52;;
31368;SDS011;18004;48.416;10.066;2024-02-28T06:24:30;29.50;;;12.90;;
31368;SDS011;18004;48.416;10.066;2024-02-28T06:26:59;25.80;;;13.52;;
31368;SDS011;18004;48.416;10.066;2024-02-28T06:29:24;29.85;;;14.13;;
31368;SDS011;18004;48.416;10.066;2024-02-28T06:31:51;33.47;;;13.60;;
31368;SDS011;18004;48.416;10.066;2024-02-28T06:34:17;28.08;;;13.50;;
31368;SDS011;18004;48.416;10.066;2024-02-28T06:36:43;31.85;;;14.52;;
31368;SDS011;18004;48.416;10.066;2024-02-28T06:39:09;27.45;;;12.65;;
31368;SDS011;18004;48.416;10.066;2024-02-28T06:41:35;31.85;;;13.68;;
31368;SDS011;18004;48.416;10.066;2024-02-28T06:44:01;31.83;;;13.80;;
31368;SDS011;18004;48.416;10.066;2024-02-28T06:46:26;37.95;;;13.98;;
31368;SDS011;18004;48.416;10.066;2024-02-28T06:48:52;26.50;;;13.95;;
31368;SDS011;18004;48.416;10.066;2024-02-28T06:51:18;31.17;;;13.50;;
31368;SDS011;18004;48.416;10.066;2024-02-28T06:53:44;29.00;;;13.65;;
31368;SDS011;18004;48.416;10.066;2024-02-28T06:56:10;28.30;;;13.38;;
31368;SDS011;18004;48.416;10.066;2024-02-28T06:58:36;25.45;;;13.40;;
31368;SDS011;18004;48.416;10.066;2024-02-28T07:01:01;30.05;;;14.50;;
31368;SDS011;18004;48.416;10.066;2024-02-28T07:03:29;27.27;;;12.32;;
31368;SDS011;18004;48.416;10.066;2024-02-28T07:05:54;31.63;;;13.35;;
31368;SDS011;18004;48.416;10.066;2024-02-28T07:08:20;30.25;;;14.20;;
31368;SDS011;18004;48.416;10.066;2024-02-28T07:10:46;29.23;;;12.75;;
31368;SDS011;18004;48.416;10.066;2024-02-28T07:13:19;34.67;;;15.48;;
31368;SDS011;18004;48.416;10.066;2024-02-28T07:15:48;30.73;;;14.02;;
31368;SDS011;18004;48.416;10.066;2024-02-28T07:18:19;30.50;;;14.73;;
31368;SDS011;18004;48.416;10.066;2024-02-28T07:20:45;33.30;;;14.68;;
31368;SDS011;18004;48.416;10.066;2024-02-28T07:23:11;38.35;;;15.35;;
31368;SDS011;18004;48.416;10.066;2024-02-28T07:25:37;27.27;;;13.63;;
31368;SDS011;18004;48.416;10.066;2024-02-28T07:28:03;31.70;;;13.80;;
31368;SDS011;18004;48.416;10.066;2024-02-28T07:30:30;30.40;;;14.07;;
31368;SDS011;18004;48.416;10.066;2024-02-28T07:32:56;27.50;;;14.00;;
31368;SDS011;18004;48.416;10.066;2024-02-28T07:35:22;34.47;;;15.23;;
31368;SDS011;18004;48.416;10.066;2024-02-28T07:37:49;28.17;;;12.90;;
31368;SDS011;18004;48.416;10.066;2024-02-28T07:40:15;31.73;;;15.55;;
31368;SDS011;18004;48.416;10.066;2024-02-28T07:42:40;33.17;;;13.45;;
31368;SDS011;18004;48.416;10.066;2024-02-28T07:45:06;28.70;;;13.60;;
31368;SDS011;18004;48.416;10.066;2024-02-28T07:47:34;34.47;;;15.27;;
31368;SDS011;18004;48.416;10.066;2024-02-28T07:49:59;30.30;;;12.20;;
31368;SDS011;18004;48.416;10.066;2024-02-28T07:52:25;28.75;;;13.98;;
31368;SDS011;18004;48.416;10.066;2024-02-28T07:54:51;30.08;;;13.40;;
31368;SDS011;18004;48.416;10.066;2024-02-28T07:57:17;32.88;;;14.25;;
31368;SDS011;18004;48.416;10.066;2024-02-28T07:59:43;33.70;;;12.60;;
31368;SDS011;18004;48.416;10.066;2024-02-28T08:02:09;31.60;;;14.18;;
31368;SDS011;18004;48.416;10.066;2024-02-28T08:04:38;28.55;;;13.63;;
31368;SDS011;18004;48.416;10.066;2024-02-28T08:07:04;34.85;;;14.15;;
31368;SDS011;18004;48.416;10.066;2024-02-28T08:09:30;29.42;;;14.43;;
31368;SDS011;18004;48.416;10.066;2024-02-28T08:11:56;31.50;;;14.32;;
31368;SDS011;18004;48.416;10.066;2024-02-28T08:14:24;25.33;;;12.50;;
31368;SDS011;18004;48.416;10.066;2024-02-28T08:16:49;27.73;;;12.20;;
31368;SDS011;18004;48.416;10.066;2024-02-28T08:19:15;23.55;;;12.50;;
31368;SDS011;18004;48.416;10.066;2024-02-28T08:21:42;29.58;;;13.00;;
31368;SDS011;18004;48.416;10.066;2024-02-28T08:24:08;26.23;;;12.68;;
31368;SDS011;18004;48.416;10.066;2024-02-28T08:26:34;28.25;;;13.35;;
31368;SDS011;18004;48.416;10.066;2024-02-28T08:29:01;31.95;;;14.15;;
31368;SDS011;18004;48.416;10.066;2024-02-28T08:31:27;31.38;;;13.95;;
31368;SDS011;18004;48.416;10.066;2024-02-28T08:33:53;24.05;;;12.80;;
31368;SDS011;18004;48.416;10.066;2024-02-28T08:36:20;31.98;;;13.40;;
31368;SDS011;18004;48.416;10.066;2024-02-28T08:38:46;33.03;;;13.13;;
31368;SDS011;18004;48.416;10.066;2024-02-28T08:41:12;34.10;;;13.18;;
31368;SDS011;18004;48.416;10.066;2024-02-28T08:43:39;33.08;;;13.68;;
31368;SDS011;18004;48.416;10.066;2024-02-28T08:46:05;33.80;;;14.48;;
31368;SDS011;18004;48.416;10.066;2024-02-28T08:48:31;34.25;;;13.60;;
31368;SDS011;18004;48.416;10.066;2024-02-28T08:50:58;29.77;;;13.55;;
31368;SDS011;18004;48.416;10.066;2024-02-28T08:53:23;26.50;;;12.43;;
31368;SDS011;18004;48.416;10.066;2024-02-28T08:55:49;31.40;;;14.02;;
31368;SDS011;18004;48.416;10.066;2024-02-28T08:58:15;31.00;;;13.23;;
31368;SDS011;18004;48.416;10.066;2024-02-28T09:00:41;30.33;;;13.85;;
31368;SDS011;18004;48.416;10.066;2024-02-28T09:03:07;36.67;;;13.80;;
31368;SDS011;18004;48.416;10.066;2024-02-28T09:05:33;25.73;;;12.70;;
31368;SDS011;18004;48.416;10.066;2024-02-28T09:07:58;29.02;;;12.65;;
31368;SDS011;18004;48.416;10.066;2024-02-28T09:10:24;30.27;;;13.00;;
31368;SDS011;18004;48.416;10.066;2024-02-28T09:12:50;35.65;;;12.70;;
31368;SDS011;18004;48.416;10.066;2024-02-28T09:15:16;20.77;;;12.10;;
31368;SDS011;18004;48.416;10.066;2024-02-28T09:17:43;28.20;;;13.07;;
31368;SDS011;18004;48.416;10.066;2024-02-28T09:20:08;32.90;;;13.68;;
31368;SDS011;18004;48.416;10.066;2024-02-28T09:22:35;33.55;;;13.10;;
31368;SDS011;18004;48.416;10.066;2024-02-28T09:25:01;30.70;;;12.82;;
31368;SDS011;18004;48.416;10.066;2024-02-28T09:27:29;28.60;;;12.82;;
31368;SDS011;18004;48.416;10.066;2024-02-28T09:29:56;28.33;;;11.90;;
31368;SDS011;18004;48.416;10.066;2024-02-28T09:32:21;28.13;;;12.25;;
31368;SDS011;18004;48.416;10.066;2024-02-28T09:34:48;30.67;;;12.85;;
31368;SDS011;18004;48.416;10.066;2024-02-28T09:37:14;26.52;;;12.55;;
31368;SDS011;18004;48.416;10.066;2024-02-28T09:39:43;37.58;;;13.27;;
31368;SDS011;18004;48.416;10.066;2024-02-28T09:42:09;23.48;;;11.15;;
31368;SDS011;18004;48.416;10.066;2024-02-28T09:44:36;26.48;;;13.45;;
31368;SDS011;18004;48.416;10.066;2024-02-28T09:47:02;23.92;;;12.23;;
31368;SDS011;18004;48.416;10.066;2024-02-28T09:49:31;26.88;;;12.32;;
31368;SDS011;18004;48.416;10.066;2024-02-28T09:51:58;29.67;;;13.65;;
31368;SDS011;18004;48.416;10.066;2024-02-28T09:54:24;33.40;;;13.25;;
31368;SDS011;18004;48.416;10.066;2024-02-28T09:56:50;27.75;;;12.18;;
31368;SDS011;18004;48.416;10.066;2024-02-28T09:59:19;28.92;;;12.57;;
31368;SDS011;18004;48.416;10.066;2024-02-28T10:01:53;29.42;;;13.10;;
31368;SDS011;18004;48.416;10.066;2024-02-28T10:04:23;26.83;;;12.02;;
31368;SDS011;18004;48.416;10.066;2024-02-28T10:06:50;27.38;;;13.27;;
31368;SDS011;18004;48.416;10.066;2024-02-28T10:09:16;27.50;;;12.23;;
31368;SDS011;18004;48.416;10.066;2024-02-28T10:11:42;26.73;;;12.43;;
31368;SDS011;18004;48.416;10.066;2024-02-28T10:14:20;32.83;;;13.50;;
31368;SDS011;18004;48.416;10.066;2024-02-28T10:19:11;30.23;;;12.02;;
31368;SDS011;18004;48.416;10.066;2024-02-28T10:21:38;34.70;;;13.98;;
31368;SDS011;18004;48.416;10.066;2024-02-28T10:24:04;27.38;;;13.50;;
31368;SDS011;18004;48.416;10.066;2024-02-28T10:26:30;28.55;;;12.40;;
31368;SDS011;18004;48.416;10.066;2024-02-28T10:29:01;31.73;;;13.15;;
31368;SDS011;18004;48.416;10.066;2024-02-28T10:31:28;31.60;;;13.93;;
31368;SDS011;18004;48.416;10.066;2024-02-28T10:33:57;27.13;;;12.02;;
31368;SDS011;18004;48.416;10.066;2024-02-28T10:36:25;27.98;;;13.25;;
31368;SDS011;18004;48.416;10.066;2024-02-28T10:38:55;26.48;;;11.95;;
31368;SDS011;18004;48.416;10.066;2024-02-28T10:41:21;31.50;;;13.55;;
31368;SDS011;18004;48.416;10.066;2024-02-28T10:43:48;30.25;;;12.35;;
31368;SDS011;18004;48.416;10.066;2024-02-28T10:46:14;27.95;;;12.48;;
31368;SDS011;18004;48.416;10.066;2024-02-28T10:48:41;31.90;;;13.77;;
31368;SDS011;18004;48.416;10.066;2024-02-28T10:51:07;32.10;;;14.40;;
31368;SDS011;18004;48.416;10.066;2024-02-28T10:53:39;30.02;;;13.52;;
31368;SDS011;18004;48.416;10.066;2024-02-28T10:58:36;30.77;;;12.93;;
31368;SDS011;18004;48.416;10.066;2024-02-28T11:01:05;28.65;;;12.95;;
31368;SDS011;18004;48.416;10.066;2024-02-28T11:03:31;29.75;;;13.10;;
31368;SDS011;18004;48.416;10.066;2024-02-28T11:05:58;26.50;;;12.25;;
31368;SDS011;18004;48.416;10.066;2024-02-28T11:08:24;23.90;;;12.45;;
31368;SDS011;18004;48.416;10.066;2024-02-28T11:10:56;28.35;;;12.90;;
31368;SDS011;18004;48.416;10.066;2024-02-28T11:13:23;25.88;;;12.05;;
31368;SDS011;18004;48.416;10.066;2024-02-28T11:15:49;28.98;;;13.05;;
31368;SDS011;18004;48.416;10.066;2024-02-28T11:18:16;25.88;;;12.85;;
31368;SDS011;18004;48.416;10.066;2024-02-28T11:20:42;31.55;;;13.23;;
31368;SDS011;18004;48.416;10.066;2024-02-28T11:23:11;28.38;;;11.43;;
31368;SDS011;18004;48.416;10.066;2024-02-28T11:25:39;27.17;;;12.23;;
31368;SDS011;18004;48.416;10.066;2024-02-28T11:28:05;30.40;;;13.68;;
31368;SDS011;18004;48.416;10.066;2024-02-28T11:30:32;28.63;;;11.60;;
31368;SDS011;18004;48.416;10.066;2024-02-28T11:32:58;27.77;;;11.60;;
31368;SDS011;18004;48.416;10.066;2024-02-28T11:35:27;29.23;;;12.10;;
31368;SDS011;18004;48.416;10.066;2024-02-28T11:37:56;30.90;;;12.82;;
31368;SDS011;18004;48.416;10.066;2024-02-28T11:40:25;26.38;;;11.15;;
31368;SDS011;18004;48.416;10.066;2024-02-28T11:42:54;24.55;;;12.30;;
31368;SDS011;18004;48.416;10.066;2024-02-28T11:45:21;23.92;;;11.73;;
31368;SDS011;18004;48.416;10.066;2024-02-28T11:47:47;27.27;;;12.48;;
31368;SDS011;18004;48.416;10.066;2024-02-28T11:50:13;36.33;;;12.85;;
31368;SDS011;18004;48.416;10.066;2024-02-28T11:52:43;34.13;;;13.40;;
31368;SDS011;18004;48.416;10.066;2024-02-28T11:55:10;23.02;;;9.95;;
31368;SDS011;18004;48.416;10.066;2024-02-28T11:57:39;26.02;;;12.07;;
31368;SDS011;18004;48.416;10.066;2024-02-28T12:00:08;33.45;;;13.77;;
31368;SDS011;18004;48.416;10.066;2024-02-28T12:02:38;29.50;;;13.45;;
31368;SDS011;18004;48.416;10.066;2024-02-28T12:05:04;29.35;;;12.93;;
31368;SDS011;18004;48.416;10.066;2024-02-28T12:07:30;28.92;;;14.13;;
31368;SDS011;18004;48.416;10.066;2024-02-28T12:09:57;36.90;;;15.52;;
31368;SDS011;18004;48.416;10.066;2024-02-28T12:12:23;40.17;;;15.40;;
31368;SDS011;18004;48.416;10.066;2024-02-28T12:14:50;29.75;;;14.68;;
31368;SDS011;18004;48.416;10.066;2024-02-28T12:17:15;37.95;;;13.80;;
31368;SDS011;18004;48.416;10.066;2024-02-28T12:19:41;36.75;;;15.57;;
31368;SDS011;18004;48.416;10.066;2024-02-28T12:22:08;31.23;;;13.13;;
31368;SDS011;18004;48.416;10.066;2024-02-28T12:24:34;32.05;;;15.02;;
31368;SDS011;18004;48.416;10.066;2024-02-28T12:27:00;30.48;;;14.32;;
31368;SDS011;18004;48.416;10.066;2024-02-28T12:29:26;31.75;;;14.63;;
31368;SDS011;18004;48.416;10.066;2024-02-28T12:31:52;30.65;;;13.70;;
31368;SDS011;18004;48.416;10.066;2024-02-28T12:34:18;34.60;;;15.13;;
31368;SDS011;18004;48.416;10.066;2024-02-28T12:36:44;35.95;;;14.90;;
31368;SDS011;18004;48.416;10.066;2024-02-28T12:39:09;35.17;;;14.55;;
31368;SDS011;18004;48.416;10.066;2024-02-28T12:41:38;28.83;;;13.82;;
31368;SDS011;18004;48.416;10.066;2024-02-28T12:44:05;26.15;;;12.32;;
31368;SDS011;18004;48.416;10.066;2024-02-28T12:46:31;31.27;;;12.38;;
31368;SDS011;18004;48.416;10.066;2024-02-28T12:48:58;33.50;;;13.30;;
31368;SDS011;18004;48.416;10.066;2024-02-28T12:51:40;29.80;;;12.02;;
31368;SDS011;18004;48.416;10.066;2024-02-28T12:56:33;26.80;;;12.40;;
31368;SDS011;18004;48.416;10.066;2024-02-28T12:58:59;27.60;;;12.05;;
31368;SDS011;18004;48.416;10.066;2024-02-28T13:01:26;25.85;;;11.52;;
31368;SDS011;18004;48.416;10.066;2024-02-28T13:03:52;32.78;;;11.80;;
31368;SDS011;18004;48.416;10.066;2024-02-28T13:06:18;26.55;;;11.90;;
31368;SDS011;18004;48.416;10.066;2024-02-28T13:08:44;26.02;;;10.45;;
31368;SDS011;18004;48.416;10.066;2024-02-28T13:11:11;26.83;;;11.30;;
31368;SDS011;18004;48.416;10.066;2024-02-28T13:13:37;15.52;;;8.57;;
31368;SDS011;18004;48.416;10.066;2024-02-28T13:16:03;21.33;;;9.55;;
31368;SDS011;18004;48.416;10.066;2024-02-28T13:18:28;31.70;;;10.98;;
31368;SDS011;18004;48.416;10.066;2024-02-28T13:20:54;21.25;;;10.73;;
31368;SDS011;18004;48.416;10.066;2024-02-28T13:23:20;16.88;;;9.75;;
31368;SDS011;18004;48.416;10.066;2024-02-28T13:25:46;25.63;;;12.13;;
31368;SDS011;18004;48.416;10.066;2024-02-28T13:28:12;31.13;;;13.02;;
31368;SDS011;18004;48.416;10.066;2024-02-28T13:30:38;24.80;;;9.85;;
31368;SDS011;18004;48.416;10.066;2024-02-28T13:33:04;22.60;;;11.07;;
31368;SDS011;18004;48.416;10.066;2024-02-28T13:35:30;21.83;;;10.80;;
31368;SDS011;18004;48.416;10.066;2024-02-28T13:37:56;30.30;;;11.25;;
31368;SDS011;18004;48.416;10.066;2024-02-28T13:40:28;24.02;;;12.05;;
31368;SDS011;18004;48.416;10.066;2024-02-28T13:42:53;20.38;;;10.77;;
31368;SDS011;18004;48.416;10.066;2024-02-28T13:45:19;22.80;;;11.57;;
31368;SDS011;18004;48.416;10.066;2024-02-28T13:47:45;23.77;;;11.18;;
31368;SDS011;18004;48.416;10.066;2024-02-28T13:50:11;28.90;;;11.63;;
31368;SDS011;18004;48.416;10.066;2024-02-28T13:52:37;19.13;;;8.27;;
31368;SDS011;18004;48.416;10.066;2024-02-28T13:55:02;21.17;;;9.70;;
31368;SDS011;18004;48.416;10.066;2024-02-28T13:57:28;19.65;;;10.27;;
31368;SDS011;18004;48.416;10.066;2024-02-28T13:59:54;24.95;;;11.10;;
31368;SDS011;18004;48.416;10.066;2024-02-28T14:02:20;23.98;;;11.90;;
31368;SDS011;18004;48.416;10.066;2024-02-28T14:04:47;19.58;;;10.07;;
31368;SDS011;18004;48.416;10.066;2024-02-28T14:07:15;22.05;;;11.43;;
31368;SDS011;18004;48.416;10.066;2024-02-28T14:09:41;22.83;;;10.38;;
31368;SDS011;18004;48.416;10.066;2024-02-28T14:12:09;25.73;;;10.43;;